createdAt,value
2019-03-12T17:55:49.896Z,0.90
2019-03-12T17:56:49.832Z,0.90
2019-03-12T17:57:50.973Z,1.30
2019-03-12T17:58:49.843Z,1.30
2019-03-12T17:59:49.836Z,1.10
2019-03-12T18:00:49.792Z,1.10
2019-03-12T18:01:49.775Z,1.30
2019-03-12T18:02:49.808Z,1.00
2019-03-12T18:03:49.780Z,1.20
2019-03-12T18:04:49.770Z,1.20
2019-03-12T18:05:49.788Z,1.40
2019-03-12T18:06:49.734Z,1.10
2019-03-12T18:07:49.725Z,1.00
2019-03-12T18:08:49.698Z,1.10
2019-03-12T18:09:49.731Z,1.50
2019-03-12T18:10:49.713Z,1.30
2019-03-12T18:11:49.874Z,1.20
2019-03-12T18:12:49.731Z,1.10
2019-03-12T18:13:49.645Z,1.00
2019-03-12T18:14:49.683Z,1.50
2019-03-12T18:15:49.639Z,1.00
2019-03-12T18:16:49.612Z,1.30
2019-03-12T18:17:49.615Z,1.30
2019-03-12T18:18:49.674Z,1.30
2019-03-12T18:19:49.589Z,1.50
2019-03-12T18:20:49.720Z,1.20
2019-03-12T18:21:49.560Z,1.60
2019-03-12T18:22:49.555Z,1.20
2019-03-12T18:23:49.703Z,1.30
2019-03-12T18:24:49.548Z,1.20
2019-03-12T18:25:49.554Z,1.20
2019-03-12T18:26:49.599Z,1.40
2019-03-12T18:27:49.557Z,1.20
2019-03-12T18:28:49.486Z,1.20
2019-03-12T18:29:49.509Z,1.20
2019-03-12T18:30:49.494Z,1.20
2019-03-12T18:31:49.502Z,1.50
2019-03-12T18:32:49.591Z,1.20
2019-03-12T18:33:49.437Z,1.40
2019-03-12T18:34:49.433Z,1.40
2019-03-12T18:35:49.446Z,1.50
2019-03-12T18:36:49.429Z,1.50
2019-03-12T18:37:49.403Z,1.70
2019-03-12T18:38:49.392Z,1.50
2019-03-12T18:39:49.367Z,1.40
2019-03-12T18:40:49.583Z,1.10
2019-03-12T18:41:49.375Z,1.20
2019-03-12T18:42:49.338Z,1.30
2019-03-12T18:43:49.351Z,1.40
2019-03-12T18:44:49.317Z,1.20
2019-03-12T18:45:49.343Z,1.30
2019-03-12T18:46:49.319Z,1.20
2019-03-12T18:47:49.509Z,1.70
2019-03-12T18:48:49.279Z,1.90
2019-03-12T18:49:49.268Z,1.50
2019-03-12T18:50:49.565Z,1.80
2019-03-12T18:51:51.444Z,2.10
2019-03-12T18:52:49.225Z,2.20
2019-03-12T18:53:49.221Z,3.00
2019-03-12T18:54:49.312Z,1.60
2019-03-12T18:55:49.196Z,1.70
2019-03-12T18:56:49.224Z,1.70
2019-03-12T18:57:49.430Z,1.80
2019-03-12T18:58:49.165Z,1.80
2019-03-12T18:59:49.155Z,1.50
2019-03-12T19:00:49.319Z,1.70
2019-03-12T19:01:49.243Z,2.00
2019-03-12T19:02:49.119Z,1.40
2019-03-12T19:03:49.201Z,1.50
2019-03-12T19:04:49.245Z,1.50
2019-03-12T19:05:49.114Z,1.60
2019-03-12T19:06:49.156Z,2.20
2019-03-12T19:07:49.130Z,1.90
2019-03-12T19:08:49.109Z,2.10
2019-03-12T19:09:49.044Z,1.40
2019-03-12T19:10:49.034Z,1.70
2019-03-12T19:11:49.076Z,1.40
2019-03-12T19:12:49.063Z,1.50
2019-03-12T19:13:49.002Z,1.20
2019-03-12T19:14:48.989Z,1.50
2019-03-12T19:15:48.999Z,1.80
2019-03-12T19:16:48.990Z,1.70
2019-03-12T19:17:49.016Z,1.40
2019-03-12T19:18:48.956Z,1.40
2019-03-12T19:19:48.996Z,1.60
2019-03-12T19:20:48.942Z,1.10
2019-03-12T19:21:49.347Z,1.40
2019-03-12T19:22:49.669Z,1.40
2019-03-12T19:23:48.970Z,1.30
2019-03-12T19:24:48.888Z,1.20
2019-03-12T19:25:48.992Z,1.20
2019-03-12T19:26:48.864Z,1.60
2019-03-12T19:27:59.199Z,1.30
2019-03-12T19:28:49.936Z,1.30
2019-03-12T19:29:48.927Z,1.50
2019-03-12T19:30:48.834Z,1.20
2019-03-12T19:31:48.817Z,1.30
2019-03-12T19:32:48.808Z,1.60
2019-03-12T19:33:48.835Z,1.30
2019-03-12T19:34:48.781Z,1.20
2019-03-12T19:35:48.771Z,1.40
2019-03-12T19:36:48.756Z,1.20
2019-03-12T19:37:48.751Z,1.30
2019-03-12T19:38:48.891Z,1.20
2019-03-12T19:39:48.847Z,1.10
2019-03-12T19:40:48.716Z,1.30
2019-03-12T19:41:48.705Z,1.20
2019-03-12T19:42:48.692Z,1.10
2019-03-12T19:43:48.799Z,1.10
2019-03-12T19:44:48.676Z,1.20
2019-03-12T19:45:48.660Z,1.20
2019-03-12T19:46:48.649Z,1.30
2019-03-12T19:47:48.686Z,1.30
2019-03-12T19:48:48.659Z,1.30
2019-03-12T19:49:48.816Z,1.40
2019-03-12T19:50:48.612Z,1.80
2019-03-12T19:51:48.645Z,1.40
2019-03-12T19:52:48.753Z,1.00
2019-03-12T19:53:48.640Z,1.60
2019-03-12T19:54:48.593Z,1.10
2019-03-12T19:55:48.563Z,1.30
2019-03-12T19:56:48.775Z,1.30
2019-03-12T19:57:48.757Z,1.00
2019-03-12T19:58:48.530Z,1.30
2019-03-12T19:59:48.583Z,1.40
2019-03-12T20:00:48.506Z,1.30
2019-03-12T20:01:48.642Z,1.50
2019-03-12T20:02:48.489Z,1.20
2019-03-12T20:03:48.466Z,1.10
2019-03-12T20:04:48.510Z,1.30
2019-03-12T20:05:48.450Z,1.30
2019-03-12T20:06:48.504Z,1.30
2019-03-12T20:07:48.623Z,1.20
2019-03-12T20:08:48.415Z,1.30
2019-03-12T20:09:48.506Z,1.20
2019-03-12T20:10:48.403Z,1.40
2019-03-12T20:11:48.379Z,1.20
2019-03-12T20:12:48.615Z,1.40
2019-03-12T20:13:48.481Z,1.40
2019-03-12T20:14:49.651Z,1.50
2019-03-12T20:15:48.340Z,1.60
2019-03-12T20:16:48.340Z,1.30
2019-03-12T20:17:48.380Z,1.30
2019-03-12T20:18:48.430Z,1.10
2019-03-12T20:19:48.332Z,1.40
2019-03-12T20:20:48.361Z,1.40
2019-03-12T20:21:48.307Z,1.30
2019-03-12T20:22:48.446Z,1.00
2019-03-12T20:23:48.315Z,1.30
2019-03-12T20:24:48.242Z,1.60
2019-03-12T20:25:48.266Z,1.50
2019-03-12T20:26:48.218Z,1.20
2019-03-12T20:27:48.271Z,1.20
2019-03-12T20:28:48.216Z,1.20
2019-03-12T20:29:48.263Z,1.30
2019-03-12T20:30:48.177Z,1.40
2019-03-12T20:31:48.208Z,1.30
2019-03-12T20:32:48.474Z,1.40
2019-03-12T20:33:48.191Z,1.20
2019-03-12T20:34:48.164Z,1.70
2019-03-12T20:35:48.122Z,1.20
2019-03-12T20:36:48.789Z,1.20
2019-03-12T20:37:48.115Z,1.20
2019-03-12T20:38:48.109Z,1.40
2019-03-12T20:39:48.081Z,1.50
2019-03-12T20:40:48.101Z,1.40
2019-03-12T20:41:48.173Z,1.50
2019-03-12T20:42:48.067Z,1.20
2019-03-12T20:43:48.035Z,1.40
2019-03-12T20:44:48.093Z,1.30
2019-03-12T20:45:48.149Z,1.30
2019-03-12T20:46:48.239Z,1.50
2019-03-12T20:47:50.369Z,1.30
2019-03-12T20:48:47.988Z,1.40
2019-03-12T20:49:47.971Z,1.30
2019-03-12T20:50:47.970Z,1.60
2019-03-12T20:51:47.961Z,1.40
2019-03-12T20:52:47.963Z,1.20
2019-03-12T20:53:47.933Z,1.60
2019-03-12T20:54:47.934Z,1.40
2019-03-12T20:55:47.922Z,1.20
2019-03-12T20:56:47.949Z,1.30
2019-03-12T20:57:47.949Z,1.30
2019-03-12T20:58:48.104Z,1.40
2019-03-12T20:59:47.904Z,1.30
2019-03-12T21:00:47.854Z,1.30
2019-03-12T21:01:47.881Z,1.40
2019-03-12T21:02:47.881Z,1.50
2019-03-12T21:03:47.829Z,1.40
2019-03-12T21:04:47.837Z,1.30
2019-03-12T21:05:47.806Z,1.40
2019-03-12T21:06:47.821Z,1.30
2019-03-12T21:07:47.963Z,1.40
2019-03-12T21:08:47.821Z,1.40
2019-03-12T21:09:47.759Z,1.20
2019-03-12T21:10:47.910Z,1.30
2019-03-12T21:11:47.740Z,1.50
2019-03-12T21:12:47.727Z,1.80
2019-03-12T21:13:47.816Z,1.30
2019-03-12T21:14:47.708Z,1.40
2019-03-12T21:15:47.705Z,1.10
2019-03-12T21:16:47.689Z,1.30
2019-03-12T21:17:47.679Z,1.30
2019-03-12T21:18:48.270Z,1.30
2019-03-12T21:19:47.907Z,1.40
2019-03-12T21:20:47.641Z,1.40
2019-03-12T21:21:47.634Z,1.20
2019-03-12T21:22:47.619Z,1.40
2019-03-12T21:23:47.607Z,1.10
2019-03-12T21:24:47.667Z,1.30
2019-03-12T21:25:48.330Z,1.50
2019-03-12T21:26:47.579Z,1.40
2019-03-12T21:27:47.586Z,1.20
2019-03-12T21:28:47.633Z,1.30
2019-03-12T21:29:47.569Z,1.20
2019-03-12T21:30:47.543Z,1.50
2019-03-12T21:31:47.538Z,1.50
2019-03-12T21:32:47.645Z,1.40
2019-03-12T21:33:47.531Z,1.10
2019-03-12T21:34:47.497Z,1.10
2019-03-12T21:35:47.639Z,1.40
2019-03-12T21:36:51.200Z,1.20
2019-03-12T21:37:47.506Z,1.40
2019-03-12T21:38:47.495Z,1.10
2019-03-12T21:39:55.185Z,1.50
2019-03-12T21:40:48.472Z,1.40
2019-03-12T21:41:47.426Z,1.40
2019-03-12T21:42:47.510Z,0.80
2019-03-12T21:43:47.479Z,1.20
2019-03-12T21:44:47.632Z,1.00
2019-03-12T21:45:47.409Z,0.90
2019-03-12T21:46:47.531Z,0.80
2019-03-12T21:47:47.376Z,0.60
2019-03-12T21:48:47.429Z,0.70
2019-03-12T21:49:47.446Z,0.60
2019-03-12T21:50:47.374Z,0.50
2019-03-12T21:51:47.308Z,0.70
2019-03-12T21:52:47.323Z,0.60
2019-03-12T21:53:47.296Z,0.60
2019-03-12T21:54:47.297Z,0.60
2019-03-12T21:55:47.293Z,0.70
2019-03-12T21:56:47.279Z,0.60
2019-03-12T21:57:47.242Z,0.70
2019-03-12T21:58:47.238Z,0.50
2019-03-12T21:59:47.229Z,0.60
2019-03-12T22:00:47.253Z,0.60
2019-03-12T22:01:47.224Z,0.50
2019-03-12T22:02:47.194Z,0.60
2019-03-12T22:03:47.229Z,0.60
2019-03-12T22:04:47.223Z,0.50
2019-03-12T22:05:47.232Z,0.60
2019-03-12T22:06:47.148Z,0.40
2019-03-12T22:07:47.137Z,0.50
2019-03-12T22:08:47.144Z,0.50
2019-03-12T22:09:47.349Z,0.50
2019-03-12T22:10:47.410Z,0.60
2019-03-12T22:11:47.132Z,0.60
2019-03-12T22:12:47.097Z,0.70
2019-03-12T22:13:47.114Z,0.70
2019-03-12T22:14:47.083Z,0.60
2019-03-12T22:15:47.083Z,0.70
2019-03-12T22:16:47.052Z,0.70
2019-03-12T22:17:47.039Z,0.70
2019-03-12T22:18:47.046Z,0.80
2019-03-12T22:19:47.032Z,0.80
2019-03-12T22:20:47.081Z,0.80
2019-03-12T22:21:47.020Z,0.80
2019-03-12T22:22:46.981Z,0.70
2019-03-12T22:23:46.998Z,0.70
2019-03-12T22:24:46.984Z,0.80
2019-03-12T22:25:46.962Z,0.80
2019-03-12T22:26:46.980Z,1.00
2019-03-12T22:27:46.923Z,0.90
2019-03-12T22:28:46.915Z,0.90
2019-03-12T22:29:46.915Z,1.00
2019-03-12T22:30:46.891Z,0.90
2019-03-12T22:31:46.927Z,1.00
2019-03-12T22:32:46.938Z,0.90
2019-03-12T22:33:46.883Z,1.20
2019-03-12T22:34:46.863Z,1.00
2019-03-12T22:35:46.838Z,0.90
2019-03-12T22:36:46.827Z,1.10
2019-03-12T22:37:46.895Z,1.00
2019-03-12T22:38:46.813Z,1.00
2019-03-12T22:39:46.796Z,1.10
2019-03-12T22:40:46.791Z,1.20
2019-03-12T22:41:46.773Z,1.20
2019-03-12T22:42:46.802Z,1.20
2019-03-12T22:43:46.812Z,1.20
2019-03-12T22:44:46.790Z,1.10
2019-03-12T22:45:46.762Z,1.30
2019-03-12T22:46:46.743Z,1.20
2019-03-12T22:47:46.732Z,1.20
2019-03-12T22:48:46.766Z,1.20
2019-03-12T22:49:46.717Z,1.40
2019-03-12T22:50:46.683Z,1.10
2019-03-12T22:51:46.670Z,1.20
2019-03-12T22:52:46.688Z,1.30
2019-03-12T22:53:46.647Z,1.30
2019-03-12T22:54:46.683Z,1.20
2019-03-12T22:55:46.701Z,1.00
2019-03-12T22:56:46.620Z,1.30
2019-03-12T22:57:46.770Z,1.40
2019-03-12T22:58:46.643Z,1.30
2019-03-12T22:59:46.612Z,1.50
2019-03-12T23:00:46.594Z,1.50
2019-03-12T23:01:46.580Z,1.20
2019-03-12T23:02:46.589Z,1.40
2019-03-12T23:03:46.545Z,1.60
2019-03-12T23:04:46.536Z,1.80
2019-03-12T23:05:46.542Z,1.60
2019-03-12T23:06:46.509Z,1.60
2019-03-12T23:07:46.525Z,1.60
2019-03-12T23:08:46.560Z,1.80
2019-03-12T23:09:46.480Z,1.80
2019-03-12T23:10:46.467Z,1.80
2019-03-12T23:11:46.465Z,1.80
2019-03-12T23:12:46.490Z,1.60
2019-03-12T23:13:46.478Z,1.60
2019-03-12T23:14:46.421Z,2.20
2019-03-12T23:15:46.467Z,2.20
2019-03-12T23:16:46.473Z,2.00
2019-03-12T23:17:46.428Z,2.50
2019-03-12T23:18:46.446Z,2.30
2019-03-12T23:19:46.404Z,2.10
2019-03-12T23:20:46.362Z,2.40
2019-03-12T23:21:46.476Z,1.90
2019-03-12T23:22:46.441Z,2.80
2019-03-12T23:23:46.382Z,2.50
2019-03-12T23:24:46.317Z,2.50
2019-03-12T23:25:46.533Z,2.60
2019-03-12T23:26:46.343Z,2.60
2019-03-12T23:27:46.286Z,2.40
2019-03-12T23:28:46.364Z,2.50
2019-03-12T23:29:46.274Z,2.60
2019-03-12T23:30:46.259Z,2.60
2019-03-12T23:31:46.240Z,2.40
2019-03-12T23:32:46.271Z,2.50
2019-03-12T23:33:46.334Z,2.50
2019-03-12T23:34:46.261Z,2.60
2019-03-12T23:35:46.202Z,2.60
2019-03-12T23:36:46.219Z,2.70
2019-03-12T23:37:46.186Z,2.50
2019-03-12T23:38:46.228Z,2.60
2019-03-12T23:39:46.228Z,2.50
2019-03-12T23:40:46.249Z,2.70
2019-03-12T23:41:46.187Z,2.60
2019-03-12T23:42:46.135Z,2.40
2019-03-12T23:43:46.160Z,2.40
2019-03-12T23:44:46.258Z,2.40
2019-03-12T23:45:46.121Z,2.60
2019-03-12T23:46:46.088Z,2.60
2019-03-12T23:47:46.204Z,2.50
2019-03-12T23:48:46.085Z,2.90
2019-03-12T23:49:46.055Z,2.40
2019-03-12T23:50:46.199Z,2.20
2019-03-12T23:51:46.076Z,2.30
2019-03-12T23:52:46.073Z,2.30
2019-03-12T23:53:46.122Z,2.20
2019-03-12T23:54:46.044Z,2.40
2019-03-12T23:55:46.017Z,2.30
2019-03-12T23:56:45.978Z,2.20
2019-03-12T23:57:45.991Z,2.30
2019-03-12T23:58:45.967Z,2.30
2019-03-12T23:59:46.074Z,2.40
